createdAt,value
2022-12-27T00:00:11.023Z,0
2022-12-27T00:01:27.341Z,0
2022-12-27T00:02:43.620Z,0
2022-12-27T00:03:59.938Z,0
2022-12-27T00:05:16.195Z,0
2022-12-27T00:06:31.508Z,0
2022-12-27T00:07:47.808Z,0
2022-12-27T00:09:04.114Z,0
2022-12-27T00:10:20.404Z,0
2022-12-27T00:11:36.704Z,0
2022-12-27T00:12:52.981Z,0
2022-12-27T00:14:09.279Z,0
2022-12-27T00:15:25.734Z,0
2022-12-27T00:16:41.024Z,0
2022-12-27T00:17:57.333Z,0
2022-12-27T00:19:12.658Z,0
2022-12-27T00:20:28.940Z,0
2022-12-27T00:21:44.000Z,0
2022-12-27T00:23:00.528Z,0
2022-12-27T00:24:16.842Z,0
2022-12-27T00:25:33.142Z,0
2022-12-27T00:26:49.443Z,0
2022-12-27T00:28:05.734Z,0
2022-12-27T00:29:22.002Z,0
2022-12-27T00:30:38.301Z,0
2022-12-27T00:31:54.610Z,0
2022-12-27T00:33:10.903Z,0
2022-12-27T00:34:27.191Z,0
2022-12-27T00:35:43.480Z,0
2022-12-27T00:36:58.787Z,0
2022-12-27T00:38:15.090Z,0
2022-12-27T00:39:31.384Z,0
2022-12-27T00:40:47.695Z,0
2022-12-27T00:42:03.985Z,0
2022-12-27T00:43:20.260Z,0
2022-12-27T00:44:36.552Z,0
2022-12-27T00:45:51.871Z,0
2022-12-27T00:47:07.188Z,0
2022-12-27T00:48:22.524Z,0
2022-12-27T00:49:37.831Z,0
2022-12-27T00:50:54.101Z,0
2022-12-27T00:52:10.415Z,0
2022-12-27T00:53:26.711Z,0
2022-12-27T00:54:43.004Z,0
2022-12-27T00:55:59.297Z,0
2022-12-27T00:57:15.589Z,0
2022-12-27T00:58:31.867Z,0
2022-12-27T00:59:48.166Z,0
2022-12-27T01:01:04.483Z,0
2022-12-27T01:02:20.771Z,0
2022-12-27T01:03:37.062Z,0
2022-12-27T01:04:53.373Z,0
2022-12-27T01:07:24.963Z,0
2022-12-27T01:08:41.272Z,0
2022-12-27T01:09:57.558Z,0
2022-12-27T01:11:13.825Z,0
2022-12-27T01:12:30.124Z,0
2022-12-27T01:13:46.424Z,0
2022-12-27T01:15:02.716Z,0
2022-12-27T01:16:18.038Z,0
2022-12-27T01:17:33.354Z,0
2022-12-27T01:18:48.672Z,0
2022-12-27T01:20:03.982Z,0
2022-12-27T01:21:20.265Z,0
2022-12-27T01:22:36.568Z,0
2022-12-27T01:23:52.857Z,0
2022-12-27T01:25:09.155Z,0
2022-12-27T01:26:25.433Z,0
2022-12-27T01:27:41.754Z,0
2022-12-27T01:30:14.344Z,0
2022-12-27T01:31:30.607Z,0
2022-12-27T01:32:46.906Z,0
2022-12-27T01:34:03.199Z,0
2022-12-27T01:35:19.512Z,0
2022-12-27T01:36:34.818Z,0
2022-12-27T01:37:51.130Z,0
2022-12-27T01:39:07.392Z,0
2022-12-27T01:40:23.708Z,0
2022-12-27T01:41:39.991Z,0
2022-12-27T01:42:56.297Z,0
2022-12-27T01:44:12.588Z,0
2022-12-27T01:45:28.901Z,0
2022-12-27T01:46:44.177Z,0
2022-12-27T01:47:59.528Z,0
2022-12-27T01:49:15.812Z,0
2022-12-27T01:50:32.093Z,0
2022-12-27T01:51:48.370Z,0
2022-12-27T01:53:04.690Z,0
2022-12-27T01:54:20.961Z,0
2022-12-27T01:55:37.278Z,0
2022-12-27T01:56:53.559Z,0
2022-12-27T01:58:09.864Z,0
2022-12-27T01:59:26.139Z,0
2022-12-27T02:00:42.434Z,0
2022-12-27T02:01:58.737Z,0
2022-12-27T02:03:15.052Z,0
2022-12-27T02:04:30.351Z,0
2022-12-27T02:05:46.654Z,0
2022-12-27T02:07:02.921Z,0
2022-12-27T02:08:19.220Z,0
2022-12-27T02:09:35.539Z,0
2022-12-27T02:10:51.000Z,0
2022-12-27T02:12:08.129Z,0
2022-12-27T02:13:23.414Z,0
2022-12-27T02:14:38.724Z,0
2022-12-27T02:15:55.023Z,0
2022-12-27T02:17:11.322Z,0
2022-12-27T02:18:27.627Z,0
2022-12-27T02:19:43.930Z,0
2022-12-27T02:21:00.198Z,0
2022-12-27T02:22:16.497Z,0
2022-12-27T02:23:32.796Z,0
2022-12-27T02:24:49.102Z,0
2022-12-27T02:26:05.411Z,0
2022-12-27T02:27:21.708Z,0
2022-12-27T02:28:37.962Z,0
2022-12-27T02:29:54.262Z,0
2022-12-27T02:31:09.591Z,0
2022-12-27T02:32:25.879Z,0
2022-12-27T02:33:42.157Z,0
2022-12-27T02:34:58.470Z,0
2022-12-27T02:36:14.755Z,0
2022-12-27T02:37:31.047Z,0
2022-12-27T02:38:47.346Z,0
2022-12-27T02:40:02.664Z,0
2022-12-27T02:41:17.961Z,0
2022-12-27T02:42:33.278Z,0
2022-12-27T02:43:48.596Z,0
2022-12-27T02:45:04.888Z,0
2022-12-27T02:46:21.187Z,0
2022-12-27T02:47:37.486Z,0
2022-12-27T02:48:53.764Z,0
2022-12-27T02:50:10.067Z,0
2022-12-27T02:51:26.361Z,0
2022-12-27T02:52:42.659Z,0
2022-12-27T02:53:58.952Z,0
2022-12-27T02:55:15.237Z,0
2022-12-27T02:56:31.529Z,0
2022-12-27T02:57:47.829Z,0
2022-12-27T02:59:04.127Z,0
2022-12-27T03:00:19.445Z,0
2022-12-27T03:01:35.723Z,0
2022-12-27T03:02:52.021Z,0
2022-12-27T03:04:08.322Z,0
2022-12-27T03:05:24.614Z,0
2022-12-27T03:06:40.919Z,0
2022-12-27T03:07:57.211Z,0
2022-12-27T03:09:12.527Z,0
2022-12-27T03:10:27.828Z,0
2022-12-27T03:11:43.145Z,0
2022-12-27T03:12:58.461Z,0
2022-12-27T03:14:14.759Z,0
2022-12-27T03:15:30.071Z,0
2022-12-27T03:16:45.389Z,0
2022-12-27T03:18:01.669Z,0
2022-12-27T03:19:17.965Z,0
2022-12-27T03:20:34.264Z,0
2022-12-27T03:21:50.563Z,0
2022-12-27T03:23:06.841Z,0
2022-12-27T03:24:23.161Z,0
2022-12-27T03:25:39.431Z,0
2022-12-27T03:26:55.731Z,0
2022-12-27T03:28:12.030Z,0
2022-12-27T03:29:28.318Z,0
2022-12-27T03:30:44.614Z,0
2022-12-27T03:32:00.905Z,0
2022-12-27T03:33:16.220Z,0
2022-12-27T03:34:32.511Z,0
2022-12-27T03:35:48.815Z,0
2022-12-27T03:37:05.101Z,0
2022-12-27T03:38:21.390Z,0
2022-12-27T03:39:37.690Z,0
2022-12-27T03:40:53.993Z,0
2022-12-27T03:42:09.307Z,0
2022-12-27T03:43:25.605Z,0
2022-12-27T03:44:40.908Z,0
2022-12-27T03:45:57.194Z,0
2022-12-27T03:47:13.493Z,0
2022-12-27T03:48:29.792Z,0
2022-12-27T03:49:46.086Z,0
2022-12-27T03:51:02.394Z,0
2022-12-27T03:52:18.668Z,0
2022-12-27T03:53:34.967Z,0
2022-12-27T03:54:51.265Z,0
2022-12-27T03:56:07.564Z,0
2022-12-27T03:57:23.847Z,0
2022-12-27T03:58:40.146Z,0
2022-12-27T03:59:56.434Z,0
2022-12-27T04:01:11.748Z,0
2022-12-27T04:02:28.054Z,0
2022-12-27T04:03:44.342Z,0
2022-12-27T04:05:00.627Z,0
2022-12-27T04:06:16.926Z,0
2022-12-27T04:07:33.220Z,0
2022-12-27T04:08:48.536Z,0
2022-12-27T04:10:03.853Z,0
2022-12-27T04:11:19.175Z,0
2022-12-27T04:12:34.489Z,0
2022-12-27T04:13:50.768Z,0
2022-12-27T04:15:07.059Z,0
2022-12-27T04:16:23.358Z,0
2022-12-27T04:17:39.659Z,0
2022-12-27T04:18:55.959Z,0
2022-12-27T04:20:12.240Z,0
2022-12-27T04:21:28.533Z,0
2022-12-27T04:22:44.833Z,0
2022-12-27T04:24:01.131Z,0
2022-12-27T04:25:17.416Z,0
2022-12-27T04:26:33.716Z,0
2022-12-27T04:27:50.007Z,0
2022-12-27T04:29:05.317Z,0
2022-12-27T04:30:21.616Z,0
2022-12-27T04:31:37.920Z,0
2022-12-27T04:32:54.204Z,0
2022-12-27T04:34:10.493Z,0
2022-12-27T04:35:26.794Z,0
2022-12-27T04:36:43.090Z,0
2022-12-27T04:37:58.402Z,0
2022-12-27T04:39:13.719Z,0
2022-12-27T04:40:30.022Z,0
2022-12-27T04:41:46.303Z,0
2022-12-27T04:43:02.596Z,0
2022-12-27T04:44:18.894Z,0
2022-12-27T04:45:35.189Z,0
2022-12-27T04:46:51.491Z,0
2022-12-27T04:48:07.776Z,0
2022-12-27T04:49:24.072Z,0
2022-12-27T04:50:40.360Z,0
2022-12-27T04:51:55.689Z,0
2022-12-27T04:53:11.977Z,0
2022-12-27T04:54:28.276Z,0
2022-12-27T04:55:44.575Z,0
2022-12-27T04:57:00.852Z,0
2022-12-27T04:58:17.144Z,0
2022-12-27T04:59:33.445Z,0
2022-12-27T05:00:49.742Z,0
2022-12-27T05:02:06.032Z,0
2022-12-27T05:03:22.337Z,0
2022-12-27T05:04:38.774Z,0
2022-12-27T05:05:54.075Z,0
2022-12-27T05:07:09.403Z,0
2022-12-27T05:08:24.703Z,0
2022-12-27T05:09:40.017Z,0
2022-12-27T05:10:55.327Z,0
2022-12-27T05:12:11.629Z,0
2022-12-27T05:13:27.926Z,0
2022-12-27T05:14:44.224Z,0
2022-12-27T05:16:00.503Z,0
2022-12-27T05:17:16.805Z,0
2022-12-27T05:18:33.100Z,0
2022-12-27T05:19:49.399Z,0
2022-12-27T05:21:05.700Z,0
2022-12-27T05:22:21.976Z,0
2022-12-27T05:23:38.275Z,0
2022-12-27T05:24:54.566Z,0
2022-12-27T05:26:10.863Z,0
2022-12-27T05:27:26.180Z,0
2022-12-27T05:28:42.466Z,0
2022-12-27T05:29:58.761Z,0
2022-12-27T05:31:15.056Z,0
2022-12-27T05:32:31.358Z,0
2022-12-27T05:33:47.648Z,0
2022-12-27T05:35:03.949Z,0
2022-12-27T05:36:19.267Z,0
2022-12-27T05:37:34.567Z,0
2022-12-27T05:38:49.881Z,0
2022-12-27T05:40:05.199Z,0
2022-12-27T05:41:21.498Z,0
2022-12-27T05:42:37.790Z,0
2022-12-27T05:43:54.080Z,0
2022-12-27T05:45:10.367Z,0
2022-12-27T05:46:26.674Z,0
2022-12-27T05:47:42.968Z,0
2022-12-27T05:48:59.259Z,0
2022-12-27T05:50:15.562Z,0
2022-12-27T05:51:31.844Z,0
2022-12-27T05:52:48.139Z,0
2022-12-27T05:54:04.431Z,0
2022-12-27T05:55:20.730Z,0
2022-12-27T05:56:36.041Z,0
2022-12-27T05:57:52.347Z,0
2022-12-27T05:59:08.625Z,0
2022-12-27T06:00:24.924Z,0
2022-12-27T06:01:41.222Z,0
2022-12-27T06:02:57.521Z,0
2022-12-27T06:04:13.806Z,0
2022-12-27T06:05:29.132Z,0
2022-12-27T06:06:44.428Z,0
2022-12-27T06:08:00.730Z,0
2022-12-27T06:09:17.026Z,0
2022-12-27T06:10:33.324Z,0
2022-12-27T06:11:49.609Z,0
2022-12-27T06:13:05.901Z,0
2022-12-27T06:14:22.212Z,0
2022-12-27T06:15:38.494Z,0
2022-12-27T06:16:54.790Z,0
2022-12-27T06:18:11.090Z,0
2022-12-27T06:19:27.378Z,0
2022-12-27T06:20:43.667Z,0
2022-12-27T06:21:59.966Z,0
2022-12-27T06:23:15.283Z,0
2022-12-27T06:24:31.578Z,0
2022-12-27T06:25:47.811Z,0
2022-12-27T06:27:04.111Z,0
2022-12-27T06:28:20.415Z,0
2022-12-27T06:29:36.709Z,0
2022-12-27T06:30:52.944Z,0
2022-12-27T06:32:08.213Z,0
2022-12-27T06:33:23.487Z,0
2022-12-27T06:34:39.716Z,0
2022-12-27T06:35:54.993Z,0
2022-12-27T06:37:10.288Z,0
2022-12-27T06:38:26.544Z,0
2022-12-27T06:39:41.813Z,0
2022-12-27T06:40:57.134Z,0
2022-12-27T06:42:13.409Z,0
2022-12-27T06:43:29.665Z,0
2022-12-27T06:44:45.915Z,0
2022-12-27T06:46:02.150Z,0
2022-12-27T06:47:18.385Z,0
2022-12-27T06:48:34.635Z,0
2022-12-27T06:49:50.870Z,0
2022-12-27T06:51:07.106Z,0
2022-12-27T06:52:23.348Z,0
2022-12-27T06:53:39.591Z,0
2022-12-27T06:54:55.826Z,0
2022-12-27T06:56:12.076Z,0
2022-12-27T06:57:27.331Z,0
2022-12-27T06:58:43.566Z,0
2022-12-27T06:59:59.815Z,0
2022-12-27T07:01:16.048Z,0
2022-12-27T07:02:32.292Z,0
2022-12-27T07:03:48.536Z,0
2022-12-27T07:05:04.771Z,5
2022-12-27T07:06:21.000Z,5
2022-12-27T07:07:36.275Z,5
2022-12-27T07:08:51.529Z,5
2022-12-27T07:10:06.799Z,5
2022-12-27T07:11:22.052Z,5
2022-12-27T07:12:38.286Z,5
2022-12-27T07:13:54.526Z,5
2022-12-27T07:15:10.772Z,5
2022-12-27T07:16:27.029Z,5
2022-12-27T07:17:43.259Z,11
2022-12-27T07:18:59.493Z,11
2022-12-27T07:20:15.738Z,11
2022-12-27T07:21:31.978Z,11
2022-12-27T07:22:48.221Z,11
2022-12-27T07:24:04.465Z,11
2022-12-27T07:25:20.698Z,11
2022-12-27T07:26:36.934Z,11
2022-12-27T07:27:52.193Z,11
2022-12-27T07:29:08.437Z,11
2022-12-27T07:30:24.671Z,11
2022-12-27T07:31:40.919Z,11
2022-12-27T07:32:57.158Z,11
2022-12-27T07:34:13.393Z,11
2022-12-27T07:35:29.643Z,11
2022-12-27T07:36:44.898Z,11
2022-12-27T07:38:00.152Z,11
2022-12-27T07:39:16.391Z,11
2022-12-27T07:40:32.632Z,5
2022-12-27T07:41:48.872Z,5
2022-12-27T07:43:05.122Z,5
2022-12-27T07:44:21.357Z,5
2022-12-27T07:45:37.592Z,5
2022-12-27T07:46:53.842Z,5
2022-12-27T07:48:10.078Z,5
2022-12-27T07:49:26.313Z,5
2022-12-27T07:50:42.564Z,5
2022-12-27T07:51:58.799Z,5
2022-12-27T07:53:15.034Z,5
2022-12-27T07:54:30.302Z,5
2022-12-27T07:55:46.537Z,5
2022-12-27T07:57:02.794Z,11
2022-12-27T07:58:19.018Z,11
2022-12-27T07:59:35.258Z,11
2022-12-27T08:00:51.496Z,11
2022-12-27T08:02:07.744Z,11
2022-12-27T08:03:22.997Z,16
2022-12-27T08:05:54.503Z,22
2022-12-27T08:07:09.755Z,22
2022-12-27T08:08:25.023Z,28
2022-12-27T08:09:41.259Z,50
2022-12-27T08:10:57.514Z,73
2022-12-27T08:12:13.744Z,90
2022-12-27T08:13:29.982Z,95
2022-12-27T08:14:46.236Z,118
2022-12-27T08:16:02.461Z,129
2022-12-27T08:17:18.700Z,135
2022-12-27T08:18:34.946Z,118
2022-12-27T08:19:51.185Z,118
2022-12-27T08:21:07.418Z,112
2022-12-27T08:22:23.677Z,112
2022-12-27T08:23:39.903Z,118
2022-12-27T08:24:55.159Z,123
2022-12-27T08:26:11.416Z,123
2022-12-27T08:27:27.646Z,129
2022-12-27T08:28:43.881Z,129
2022-12-27T08:30:00.132Z,129
2022-12-27T08:31:16.371Z,129
2022-12-27T08:32:32.600Z,135
2022-12-27T08:33:47.868Z,135
2022-12-27T08:35:03.124Z,135
2022-12-27T08:36:18.385Z,135
2022-12-27T08:37:33.646Z,135
2022-12-27T08:38:49.881Z,135
2022-12-27T08:40:06.131Z,140
2022-12-27T08:41:22.374Z,140
2022-12-27T08:42:38.601Z,151
2022-12-27T08:43:54.854Z,146
2022-12-27T08:45:11.087Z,146
2022-12-27T08:46:27.318Z,146
2022-12-27T08:47:43.566Z,151
2022-12-27T08:48:59.807Z,151
2022-12-27T08:50:16.042Z,157
2022-12-27T08:51:32.291Z,163
2022-12-27T08:52:48.524Z,163
2022-12-27T08:54:03.783Z,168
2022-12-27T08:55:20.031Z,174
2022-12-27T08:56:36.273Z,174
2022-12-27T08:57:52.502Z,180
2022-12-27T08:59:08.746Z,185
2022-12-27T09:00:24.997Z,191
2022-12-27T09:01:41.222Z,208
2022-12-27T09:02:56.484Z,466
2022-12-27T09:04:11.745Z,1580
2022-12-27T09:05:27.993Z,1631
2022-12-27T09:06:43.243Z,624
2022-12-27T09:07:59.485Z,1490
2022-12-27T09:09:15.739Z,1670
2022-12-27T09:10:31.977Z,2064
2022-12-27T09:11:48.200Z,2013
2022-12-27T09:13:04.455Z,2176
2022-12-27T09:14:20.689Z,455
2022-12-27T09:15:36.925Z,489
2022-12-27T09:16:53.175Z,2064
2022-12-27T09:18:09.412Z,2385
2022-12-27T09:19:25.660Z,2075
2022-12-27T09:20:41.898Z,2182
2022-12-27T09:21:58.131Z,2188
2022-12-27T09:23:13.393Z,2081
2022-12-27T09:24:29.630Z,2137
2022-12-27T09:25:45.868Z,2109
2022-12-27T09:27:02.107Z,2199
2022-12-27T09:28:18.347Z,2176
2022-12-27T09:29:33.602Z,2323
2022-12-27T09:30:48.859Z,2233
2022-12-27T09:32:04.124Z,2334
2022-12-27T09:33:19.383Z,2143
2022-12-27T09:34:35.619Z,1946
2022-12-27T09:35:51.867Z,2323
2022-12-27T09:37:08.112Z,2328
2022-12-27T09:38:24.339Z,1968
2022-12-27T09:39:40.584Z,2283
2022-12-27T09:40:56.821Z,2413
2022-12-27T09:42:13.065Z,360
2022-12-27T09:43:29.316Z,2520
2022-12-27T09:44:45.556Z,2570
2022-12-27T09:46:01.792Z,2379
2022-12-27T09:47:18.027Z,2356
2022-12-27T09:48:34.267Z,2165
2022-12-27T09:49:49.524Z,2311
2022-12-27T09:51:05.760Z,2176
2022-12-27T09:52:22.005Z,2227
2022-12-27T09:53:38.256Z,2773
2022-12-27T09:54:54.482Z,2610
2022-12-27T09:56:10.732Z,2491
2022-12-27T09:57:26.965Z,2379
2022-12-27T09:58:42.238Z,2497
2022-12-27T09:59:57.475Z,1569
2022-12-27T10:01:12.748Z,2705
2022-12-27T10:02:27.994Z,1440
2022-12-27T10:03:44.241Z,793
2022-12-27T10:05:00.475Z,2632
2022-12-27T10:06:16.723Z,2784
2022-12-27T10:07:32.956Z,2722
2022-12-27T10:08:49.192Z,2626
2022-12-27T10:10:05.434Z,2818
2022-12-27T10:11:21.669Z,2666
2022-12-27T10:12:37.918Z,2497
2022-12-27T10:13:54.160Z,2902
2022-12-27T10:15:10.395Z,2722
2022-12-27T10:16:26.643Z,2773
2022-12-27T10:17:42.875Z,2542
2022-12-27T10:18:58.147Z,2036
2022-12-27T10:20:14.365Z,2233
2022-12-27T10:21:30.609Z,2998
2022-12-27T10:22:46.846Z,585
2022-12-27T10:24:03.088Z,500
2022-12-27T10:25:19.331Z,781
2022-12-27T10:26:35.570Z,360
2022-12-27T10:27:50.831Z,337
2022-12-27T10:29:06.087Z,331
2022-12-27T10:30:22.318Z,275
2022-12-27T10:31:38.565Z,281
2022-12-27T10:32:54.804Z,264
2022-12-27T10:34:11.042Z,180
2022-12-27T10:35:27.279Z,264
2022-12-27T10:36:43.528Z,343
2022-12-27T10:37:59.780Z,146
2022-12-27T10:39:16.016Z,163
2022-12-27T10:40:32.250Z,292
2022-12-27T10:41:48.484Z,258
2022-12-27T10:43:04.730Z,247
2022-12-27T10:44:20.972Z,196
2022-12-27T10:45:36.224Z,157
2022-12-27T10:46:52.470Z,360
2022-12-27T10:48:08.694Z,376
2022-12-27T10:49:24.935Z,360
2022-12-27T10:50:41.190Z,309
2022-12-27T10:51:57.413Z,714
2022-12-27T10:53:13.667Z,1636
2022-12-27T10:54:28.939Z,247
2022-12-27T10:55:44.185Z,354
2022-12-27T10:57:00.427Z,405
2022-12-27T10:58:16.657Z,1530
2022-12-27T10:59:32.917Z,461
2022-12-27T11:00:49.150Z,511
2022-12-27T11:02:05.382Z,1400
2022-12-27T11:03:21.628Z,1350
2022-12-27T11:04:37.869Z,472
2022-12-27T11:05:54.127Z,1755
2022-12-27T11:07:10.368Z,2570
2022-12-27T11:08:26.599Z,860
2022-12-27T11:09:42.849Z,399
2022-12-27T11:10:59.068Z,348
2022-12-27T11:12:14.321Z,393
2022-12-27T11:13:30.580Z,2480
2022-12-27T11:14:46.820Z,405
2022-12-27T11:16:03.058Z,1738
2022-12-27T11:17:19.303Z,545
2022-12-27T11:18:35.547Z,731
2022-12-27T11:19:51.777Z,298
2022-12-27T11:21:07.045Z,157
2022-12-27T11:22:22.300Z,123
2022-12-27T11:23:37.554Z,135
2022-12-27T11:24:52.815Z,168
2022-12-27T11:26:08.080Z,157
2022-12-27T11:27:23.324Z,106
2022-12-27T11:28:39.563Z,84
2022-12-27T11:29:55.817Z,118
2022-12-27T11:31:12.057Z,185
2022-12-27T11:32:28.292Z,140
2022-12-27T11:33:44.526Z,174
2022-12-27T11:35:00.765Z,247
2022-12-27T11:36:17.021Z,2025
2022-12-27T11:37:33.264Z,483
2022-12-27T11:38:49.505Z,382
2022-12-27T11:40:05.731Z,196
2022-12-27T11:41:21.974Z,146
2022-12-27T11:42:38.229Z,202
2022-12-27T11:43:53.481Z,168
2022-12-27T11:45:09.723Z,123
2022-12-27T11:46:25.969Z,146
2022-12-27T11:47:42.203Z,157
2022-12-27T11:48:58.434Z,118
2022-12-27T11:50:14.675Z,123
2022-12-27T11:51:30.921Z,129
2022-12-27T11:52:46.180Z,135
2022-12-27T11:54:01.441Z,101
2022-12-27T11:55:17.674Z,84
2022-12-27T11:56:33.914Z,90
2022-12-27T11:57:50.168Z,95
2022-12-27T11:59:06.395Z,90
2022-12-27T12:00:22.630Z,78
2022-12-27T12:01:38.879Z,67
2022-12-27T12:02:55.127Z,73
2022-12-27T12:04:11.350Z,73
2022-12-27T12:05:27.591Z,61
2022-12-27T12:06:43.831Z,61
2022-12-27T12:08:00.069Z,56
2022-12-27T12:09:16.304Z,50
2022-12-27T12:11:47.805Z,50
2022-12-27T12:13:04.044Z,50
2022-12-27T12:14:20.301Z,56
2022-12-27T12:15:36.526Z,95
2022-12-27T12:16:52.759Z,151
2022-12-27T12:18:09.007Z,202
2022-12-27T12:19:25.238Z,151
2022-12-27T12:20:40.517Z,208
2022-12-27T12:21:55.766Z,146
2022-12-27T12:23:11.022Z,101
2022-12-27T12:24:26.286Z,95
2022-12-27T12:25:41.562Z,303
2022-12-27T12:26:56.812Z,140
2022-12-27T12:28:13.048Z,135
2022-12-27T12:29:29.293Z,101
2022-12-27T12:30:45.536Z,101
2022-12-27T12:32:01.774Z,112
2022-12-27T12:33:18.004Z,129
2022-12-27T12:34:34.244Z,129
2022-12-27T12:35:50.492Z,174
2022-12-27T12:37:06.735Z,185
2022-12-27T12:38:22.982Z,202
2022-12-27T12:39:39.221Z,174
2022-12-27T12:40:55.453Z,191
2022-12-27T12:42:11.689Z,202
2022-12-27T12:43:26.952Z,225
2022-12-27T12:44:43.181Z,202
2022-12-27T12:45:59.430Z,168
2022-12-27T12:47:15.673Z,163
2022-12-27T12:48:31.906Z,157
2022-12-27T12:49:48.152Z,163
2022-12-27T12:51:04.391Z,191
2022-12-27T12:52:19.644Z,208
2022-12-27T12:53:34.916Z,191
2022-12-27T12:54:50.186Z,196
2022-12-27T12:56:05.430Z,213
2022-12-27T12:57:21.658Z,230
2022-12-27T12:58:37.919Z,208
2022-12-27T12:59:54.136Z,191
2022-12-27T13:01:10.380Z,185
2022-12-27T13:02:26.626Z,191
2022-12-27T13:03:42.870Z,191
2022-12-27T13:04:59.114Z,151
2022-12-27T13:06:15.344Z,168
2022-12-27T13:07:31.587Z,151
2022-12-27T13:10:04.077Z,180
2022-12-27T13:11:20.315Z,191
2022-12-27T13:12:35.568Z,191
2022-12-27T13:15:08.048Z,168
2022-12-27T13:16:23.307Z,157
2022-12-27T13:17:38.565Z,163
2022-12-27T13:18:54.802Z,151
2022-12-27T13:20:11.031Z,135
2022-12-27T13:21:26.305Z,135
2022-12-27T13:22:42.540Z,135
2022-12-27T13:23:58.780Z,129
2022-12-27T13:25:15.026Z,123
2022-12-27T13:26:31.259Z,123
2022-12-27T13:27:47.504Z,123
2022-12-27T13:29:03.734Z,118
2022-12-27T13:30:19.005Z,123
2022-12-27T13:31:34.254Z,118
2022-12-27T13:32:50.500Z,118
2022-12-27T13:34:06.740Z,123
2022-12-27T13:35:22.978Z,118
2022-12-27T13:36:39.212Z,112
2022-12-27T13:37:55.476Z,95
2022-12-27T13:39:11.707Z,84
2022-12-27T13:40:27.955Z,73
2022-12-27T13:41:44.190Z,84
2022-12-27T13:43:00.421Z,78
2022-12-27T13:44:16.671Z,78
2022-12-27T13:45:32.894Z,90
2022-12-27T13:46:49.140Z,106
2022-12-27T13:48:04.413Z,101
2022-12-27T13:49:20.643Z,95
2022-12-27T13:50:36.885Z,90
2022-12-27T13:51:53.119Z,90
2022-12-27T13:53:09.362Z,90
2022-12-27T13:54:25.594Z,84
2022-12-27T13:55:41.844Z,90
2022-12-27T13:56:57.101Z,90
2022-12-27T13:58:12.354Z,90
2022-12-27T13:59:27.625Z,90
2022-12-27T14:00:42.871Z,90
2022-12-27T14:01:59.116Z,84
2022-12-27T14:03:15.356Z,73
2022-12-27T14:04:31.590Z,73
2022-12-27T14:05:47.829Z,67
2022-12-27T14:07:04.074Z,67
2022-12-27T14:08:19.345Z,61
2022-12-27T14:09:34.581Z,61
2022-12-27T14:10:49.859Z,61
2022-12-27T14:12:05.118Z,61
2022-12-27T14:13:21.340Z,56
2022-12-27T14:14:37.592Z,56
2022-12-27T14:15:53.840Z,56
2022-12-27T14:17:10.070Z,56
2022-12-27T14:18:26.305Z,56
2022-12-27T14:19:42.546Z,56
2022-12-27T14:20:58.793Z,50
2022-12-27T14:22:15.023Z,50
2022-12-27T14:23:31.270Z,50
2022-12-27T14:24:47.500Z,50
2022-12-27T14:26:03.752Z,50
2022-12-27T14:27:19.999Z,45
2022-12-27T14:28:35.254Z,45
2022-12-27T14:29:51.489Z,45
2022-12-27T14:31:07.729Z,39
2022-12-27T14:32:23.971Z,39
2022-12-27T14:33:40.201Z,39
2022-12-27T14:34:56.441Z,39
2022-12-27T14:36:12.684Z,39
2022-12-27T14:37:27.962Z,33
2022-12-27T14:38:43.211Z,33
2022-12-27T14:39:58.473Z,33
2022-12-27T14:41:13.723Z,33
2022-12-27T14:42:29.966Z,33
2022-12-27T14:43:46.203Z,28
2022-12-27T14:45:02.443Z,28
2022-12-27T14:46:18.685Z,28
2022-12-27T14:47:34.928Z,22
2022-12-27T14:48:51.174Z,22
2022-12-27T14:50:07.409Z,22
2022-12-27T14:51:23.643Z,16
2022-12-27T14:52:39.877Z,16
2022-12-27T14:53:56.124Z,16
2022-12-27T14:55:12.361Z,16
2022-12-27T14:56:28.614Z,11
2022-12-27T14:57:43.873Z,11
2022-12-27T14:59:00.104Z,11
2022-12-27T15:00:16.351Z,11
2022-12-27T15:01:32.579Z,11
2022-12-27T15:04:05.078Z,11
2022-12-27T15:05:21.295Z,5
2022-12-27T15:06:37.544Z,5
2022-12-27T15:07:52.810Z,5
2022-12-27T15:09:08.053Z,5
2022-12-27T15:10:23.324Z,5
2022-12-27T15:11:38.583Z,5
2022-12-27T15:12:54.817Z,5
2022-12-27T15:14:11.059Z,0
2022-12-27T15:15:27.295Z,0
2022-12-27T15:16:43.534Z,0
2022-12-27T15:17:59.793Z,0
2022-12-27T15:19:16.018Z,0
2022-12-27T15:20:32.261Z,0
2022-12-27T15:21:48.504Z,0
2022-12-27T15:23:04.748Z,0
2022-12-27T15:24:20.975Z,0
2022-12-27T15:25:37.228Z,0
2022-12-27T15:26:53.471Z,0
2022-12-27T15:28:08.728Z,0
2022-12-27T15:29:24.957Z,0
2022-12-27T15:30:41.204Z,0
2022-12-27T15:31:57.440Z,0
2022-12-27T15:33:13.673Z,0
2022-12-27T15:34:29.924Z,0
2022-12-27T15:35:46.170Z,0
2022-12-27T15:37:01.420Z,0
2022-12-27T15:38:16.670Z,0
2022-12-27T15:39:32.922Z,0
2022-12-27T15:40:49.152Z,0
2022-12-27T15:42:05.405Z,0
2022-12-27T15:43:21.645Z,0
2022-12-27T15:44:37.892Z,0
2022-12-27T15:45:54.127Z,0
2022-12-27T15:47:10.364Z,0
2022-12-27T15:48:26.000Z,0
2022-12-27T15:49:42.886Z,0
2022-12-27T15:50:59.181Z,0
2022-12-27T15:52:15.486Z,0
2022-12-27T15:53:31.788Z,0
2022-12-27T15:54:48.189Z,0
2022-12-27T15:56:04.491Z,0
2022-12-27T15:57:20.776Z,0
2022-12-27T15:58:37.075Z,0
2022-12-27T15:59:53.373Z,0
2022-12-27T16:01:09.662Z,0
2022-12-27T16:02:25.958Z,0
2022-12-27T16:03:41.274Z,0
2022-12-27T16:04:56.590Z,0
2022-12-27T16:06:12.880Z,0
2022-12-27T16:07:29.169Z,0
2022-12-27T16:08:45.469Z,0
2022-12-27T16:10:01.770Z,0
2022-12-27T16:11:18.065Z,0
2022-12-27T16:12:34.358Z,0
2022-12-27T16:13:50.648Z,0
2022-12-27T16:15:06.937Z,0
2022-12-27T16:16:23.240Z,0
2022-12-27T16:17:39.541Z,0
2022-12-27T16:18:55.828Z,0
2022-12-27T16:20:12.121Z,0
2022-12-27T16:21:27.427Z,0
2022-12-27T16:22:43.727Z,0
2022-12-27T16:24:00.006Z,0
2022-12-27T16:25:16.325Z,0
2022-12-27T16:26:32.607Z,0
2022-12-27T16:27:48.897Z,0
2022-12-27T16:29:05.201Z,0
2022-12-27T16:30:20.508Z,0
2022-12-27T16:31:35.819Z,0
2022-12-27T16:32:51.126Z,0
2022-12-27T16:34:06.450Z,0
2022-12-27T16:35:21.756Z,0
2022-12-27T16:36:37.075Z,0
2022-12-27T16:37:53.383Z,0
2022-12-27T16:39:08.684Z,0
2022-12-27T16:40:23.981Z,0
2022-12-27T16:41:40.283Z,0
2022-12-27T16:42:56.600Z,0
2022-12-27T16:44:12.872Z,0
2022-12-27T16:45:29.176Z,0
2022-12-27T16:46:45.463Z,0
2022-12-27T16:48:01.770Z,0
2022-12-27T16:49:18.048Z,0
2022-12-27T16:50:34.348Z,0
2022-12-27T16:51:50.650Z,0
2022-12-27T16:53:06.941Z,0
2022-12-27T16:54:23.232Z,0
2022-12-27T16:55:39.515Z,0
2022-12-27T16:56:54.836Z,0
2022-12-27T16:58:11.122Z,0
2022-12-27T16:59:27.421Z,0
2022-12-27T17:00:43.725Z,0
2022-12-27T17:02:00.014Z,0
2022-12-27T17:03:16.322Z,0
2022-12-27T17:04:32.591Z,0
2022-12-27T17:05:47.933Z,0
2022-12-27T17:07:03.234Z,0
2022-12-27T17:08:18.556Z,0
2022-12-27T17:09:33.861Z,0
2022-12-27T17:10:50.150Z,0
2022-12-27T17:12:06.437Z,0
2022-12-27T17:13:22.740Z,0
2022-12-27T17:14:39.029Z,0
2022-12-27T17:15:55.315Z,0
2022-12-27T17:17:11.620Z,0
2022-12-27T17:18:27.905Z,0
2022-12-27T17:19:44.200Z,0
2022-12-27T17:21:00.505Z,0
2022-12-27T17:22:16.807Z,0
2022-12-27T17:23:33.088Z,0
2022-12-27T17:24:49.387Z,0
2022-12-27T17:26:04.701Z,0
2022-12-27T17:27:20.991Z,0
2022-12-27T17:28:37.289Z,0
2022-12-27T17:29:53.581Z,0
2022-12-27T17:31:09.876Z,0
2022-12-27T17:32:26.171Z,0
2022-12-27T17:33:42.474Z,0
2022-12-27T17:34:57.767Z,0
2022-12-27T17:36:13.083Z,0
2022-12-27T17:37:29.402Z,0
2022-12-27T17:38:45.696Z,0
2022-12-27T17:40:00.993Z,0
2022-12-27T17:41:16.301Z,0
2022-12-27T17:42:32.619Z,0
2022-12-27T17:43:48.898Z,0
2022-12-27T17:45:05.191Z,0
2022-12-27T17:46:21.486Z,0
2022-12-27T17:47:37.770Z,0
2022-12-27T17:48:54.074Z,0
2022-12-27T17:50:10.369Z,0
2022-12-27T17:51:26.660Z,0
2022-12-27T17:52:42.947Z,0
2022-12-27T17:53:59.255Z,0
2022-12-27T17:55:15.549Z,0
2022-12-27T17:56:31.831Z,0
2022-12-27T17:57:47.156Z,0
2022-12-27T17:59:03.448Z,0
2022-12-27T18:00:19.740Z,0
2022-12-27T18:01:36.043Z,0
2022-12-27T18:02:52.319Z,0
2022-12-27T18:04:08.626Z,0
2022-12-27T18:05:24.919Z,0
2022-12-27T18:06:40.234Z,0
2022-12-27T18:07:55.548Z,0
2022-12-27T18:09:11.837Z,0
2022-12-27T18:10:27.154Z,0
2022-12-27T18:11:42.470Z,0
2022-12-27T18:12:58.758Z,0
2022-12-27T18:14:15.050Z,0
2022-12-27T18:15:31.356Z,0
2022-12-27T18:16:47.651Z,0
2022-12-27T18:18:03.925Z,0
2022-12-27T18:19:20.223Z,0
2022-12-27T18:20:36.521Z,0
2022-12-27T18:21:52.828Z,0
2022-12-27T18:23:09.108Z,0